sensor_id;sensor_type;location;lat;lon;timestamp;P1;durP1;ratioP1;P2;durP2;ratioP2
2386;SDS011;49473;50.772;8.768;2024-01-06T00:00:49;2.10;;;1.60;;
2386;SDS011;49473;50.772;8.768;2024-01-06T00:03:16;4.80;;;1.77;;
2386;SDS011;49473;50.772;8.768;2024-01-06T00:05:43;3.80;;;1.63;;
2386;SDS011;49473;50.772;8.768;2024-01-06T00:08:10;1.80;;;1.60;;
2386;SDS011;49473;50.772;8.768;2024-01-06T00:10:36;4.43;;;1.67;;
2386;SDS011;49473;50.772;8.768;2024-01-06T00:13:03;4.27;;;1.83;;
2386;SDS011;49473;50.772;8.768;2024-01-06T00:15:30;6.17;;;1.90;;
2386;SDS011;49473;50.772;8.768;2024-01-06T00:17:58;3.20;;;1.70;;
2386;SDS011;49473;50.772;8.768;2024-01-06T00:20:25;3.13;;;1.90;;
2386;SDS011;49473;50.772;8.768;2024-01-06T00:22:51;2.70;;;1.70;;
2386;SDS011;49473;50.772;8.768;2024-01-06T00:25:18;2.37;;;1.70;;
2386;SDS011;49473;50.772;8.768;2024-01-06T00:27:45;3.90;;;1.97;;
2386;SDS011;49473;50.772;8.768;2024-01-06T00:30:12;3.07;;;2.10;;
2386;SDS011;49473;50.772;8.768;2024-01-06T00:32:39;3.63;;;1.70;;
2386;SDS011;49473;50.772;8.768;2024-01-06T00:35:07;1.60;;;1.50;;
2386;SDS011;49473;50.772;8.768;2024-01-06T00:37:34;5.90;;;1.80;;
2386;SDS011;49473;50.772;8.768;2024-01-06T00:40:00;4.13;;;1.93;;
2386;SDS011;49473;50.772;8.768;2024-01-06T00:42:27;4.57;;;1.57;;
2386;SDS011;49473;50.772;8.768;2024-01-06T00:44:54;7.43;;;2.20;;
2386;SDS011;49473;50.772;8.768;2024-01-06T00:47:21;3.77;;;1.77;;
2386;SDS011;49473;50.772;8.768;2024-01-06T00:49:49;2.50;;;1.50;;
2386;SDS011;49473;50.772;8.768;2024-01-06T00:52:17;3.40;;;1.90;;
2386;SDS011;49473;50.772;8.768;2024-01-06T00:54:44;4.83;;;1.70;;
2386;SDS011;49473;50.772;8.768;2024-01-06T00:57:11;2.23;;;1.70;;
2386;SDS011;49473;50.772;8.768;2024-01-06T00:59:38;2.70;;;1.90;;
2386;SDS011;49473;50.772;8.768;2024-01-06T01:02:05;2.33;;;1.30;;
2386;SDS011;49473;50.772;8.768;2024-01-06T01:04:32;7.73;;;2.40;;
2386;SDS011;49473;50.772;8.768;2024-01-06T01:06:58;2.63;;;1.73;;
2386;SDS011;49473;50.772;8.768;2024-01-06T01:09:25;2.30;;;2.03;;
2386;SDS011;49473;50.772;8.768;2024-01-06T01:11:52;2.23;;;1.80;;
2386;SDS011;49473;50.772;8.768;2024-01-06T01:14:19;4.40;;;2.73;;
2386;SDS011;49473;50.772;8.768;2024-01-06T01:16:46;3.17;;;1.70;;
2386;SDS011;49473;50.772;8.768;2024-01-06T01:19:13;2.90;;;2.07;;
2386;SDS011;49473;50.772;8.768;2024-01-06T01:21:39;1.93;;;1.83;;
2386;SDS011;49473;50.772;8.768;2024-01-06T01:24:06;5.00;;;2.00;;
2386;SDS011;49473;50.772;8.768;2024-01-06T01:26:34;5.10;;;2.20;;
2386;SDS011;49473;50.772;8.768;2024-01-06T01:29:00;2.37;;;1.73;;
2386;SDS011;49473;50.772;8.768;2024-01-06T01:31:27;4.77;;;1.87;;
2386;SDS011;49473;50.772;8.768;2024-01-06T01:33:54;2.30;;;2.10;;
2386;SDS011;49473;50.772;8.768;2024-01-06T01:36:20;3.77;;;1.83;;
2386;SDS011;49473;50.772;8.768;2024-01-06T01:38:48;3.70;;;2.10;;
2386;SDS011;49473;50.772;8.768;2024-01-06T01:41:15;2.53;;;2.10;;
2386;SDS011;49473;50.772;8.768;2024-01-06T01:43:43;4.37;;;2.10;;
2386;SDS011;49473;50.772;8.768;2024-01-06T01:46:11;2.73;;;2.10;;
2386;SDS011;49473;50.772;8.768;2024-01-06T01:48:38;4.13;;;2.13;;
2386;SDS011;49473;50.772;8.768;2024-01-06T01:51:06;2.67;;;2.07;;
2386;SDS011;49473;50.772;8.768;2024-01-06T01:53:34;3.30;;;2.00;;
2386;SDS011;49473;50.772;8.768;2024-01-06T01:56:00;2.90;;;2.20;;
2386;SDS011;49473;50.772;8.768;2024-01-06T01:58:29;2.83;;;1.83;;
2386;SDS011;49473;50.772;8.768;2024-01-06T02:00:57;3.27;;;2.10;;
2386;SDS011;49473;50.772;8.768;2024-01-06T02:03:24;3.60;;;1.80;;
2386;SDS011;49473;50.772;8.768;2024-01-06T02:05:52;2.53;;;2.00;;
2386;SDS011;49473;50.772;8.768;2024-01-06T02:08:19;2.27;;;1.80;;
2386;SDS011;49473;50.772;8.768;2024-01-06T02:10:45;2.30;;;2.10;;
2386;SDS011;49473;50.772;8.768;2024-01-06T02:13:12;2.60;;;2.20;;
2386;SDS011;49473;50.772;8.768;2024-01-06T02:15:39;3.23;;;2.20;;
2386;SDS011;49473;50.772;8.768;2024-01-06T02:18:07;2.40;;;2.07;;
2386;SDS011;49473;50.772;8.768;2024-01-06T02:20:34;3.37;;;2.53;;
2386;SDS011;49473;50.772;8.768;2024-01-06T02:23:02;3.33;;;2.13;;
2386;SDS011;49473;50.772;8.768;2024-01-06T02:25:30;3.17;;;2.50;;
2386;SDS011;49473;50.772;8.768;2024-01-06T02:27:56;6.53;;;2.67;;
2386;SDS011;49473;50.772;8.768;2024-01-06T02:30:23;4.73;;;2.17;;
2386;SDS011;49473;50.772;8.768;2024-01-06T02:32:50;2.67;;;2.10;;
2386;SDS011;49473;50.772;8.768;2024-01-06T02:35:16;3.77;;;2.07;;
2386;SDS011;49473;50.772;8.768;2024-01-06T02:37:43;2.13;;;1.73;;
2386;SDS011;49473;50.772;8.768;2024-01-06T02:40:12;3.57;;;2.27;;
2386;SDS011;49473;50.772;8.768;2024-01-06T02:42:39;4.30;;;2.03;;
2386;SDS011;49473;50.772;8.768;2024-01-06T02:45:07;2.50;;;2.00;;
2386;SDS011;49473;50.772;8.768;2024-01-06T02:47:34;3.60;;;2.10;;
2386;SDS011;49473;50.772;8.768;2024-01-06T02:50:01;3.50;;;2.10;;
2386;SDS011;49473;50.772;8.768;2024-01-06T02:52:28;4.07;;;2.13;;
2386;SDS011;49473;50.772;8.768;2024-01-06T02:54:55;4.17;;;2.27;;
2386;SDS011;49473;50.772;8.768;2024-01-06T02:57:23;2.93;;;2.20;;
2386;SDS011;49473;50.772;8.768;2024-01-06T02:59:49;7.63;;;2.63;;
2386;SDS011;49473;50.772;8.768;2024-01-06T03:02:16;2.13;;;1.93;;
2386;SDS011;49473;50.772;8.768;2024-01-06T03:04:43;4.27;;;2.40;;
2386;SDS011;49473;50.772;8.768;2024-01-06T03:07:09;2.40;;;2.20;;
2386;SDS011;49473;50.772;8.768;2024-01-06T03:09:36;4.30;;;2.33;;
2386;SDS011;49473;50.772;8.768;2024-01-06T03:12:04;6.67;;;2.57;;
2386;SDS011;49473;50.772;8.768;2024-01-06T03:14:33;3.87;;;2.20;;
2386;SDS011;49473;50.772;8.768;2024-01-06T03:17:00;4.67;;;2.57;;
2386;SDS011;49473;50.772;8.768;2024-01-06T03:19:27;8.70;;;2.67;;
2386;SDS011;49473;50.772;8.768;2024-01-06T03:21:54;3.40;;;2.17;;
2386;SDS011;49473;50.772;8.768;2024-01-06T03:24:21;2.80;;;2.60;;
2386;SDS011;49473;50.772;8.768;2024-01-06T03:26:49;3.23;;;2.40;;
2386;SDS011;49473;50.772;8.768;2024-01-06T03:29:16;4.90;;;2.83;;
2386;SDS011;49473;50.772;8.768;2024-01-06T03:31:44;4.27;;;2.40;;
2386;SDS011;49473;50.772;8.768;2024-01-06T03:34:11;6.43;;;2.70;;
2386;SDS011;49473;50.772;8.768;2024-01-06T03:36:37;5.60;;;2.80;;
2386;SDS011;49473;50.772;8.768;2024-01-06T03:39:04;4.10;;;2.67;;
2386;SDS011;49473;50.772;8.768;2024-01-06T03:41:32;3.30;;;2.43;;
2386;SDS011;49473;50.772;8.768;2024-01-06T03:43:59;3.07;;;2.80;;
2386;SDS011;49473;50.772;8.768;2024-01-06T03:46:25;2.37;;;2.20;;
2386;SDS011;49473;50.772;8.768;2024-01-06T03:48:53;3.73;;;2.90;;
2386;SDS011;49473;50.772;8.768;2024-01-06T03:51:20;6.57;;;2.80;;
2386;SDS011;49473;50.772;8.768;2024-01-06T03:53:48;6.40;;;3.13;;
2386;SDS011;49473;50.772;8.768;2024-01-06T03:56:14;4.40;;;3.07;;
2386;SDS011;49473;50.772;8.768;2024-01-06T03:58:41;4.80;;;3.10;;
2386;SDS011;49473;50.772;8.768;2024-01-06T04:01:08;3.53;;;2.70;;
2386;SDS011;49473;50.772;8.768;2024-01-06T04:03:35;3.73;;;2.73;;
2386;SDS011;49473;50.772;8.768;2024-01-06T04:06:03;4.87;;;3.13;;
2386;SDS011;49473;50.772;8.768;2024-01-06T04:08:31;3.17;;;2.80;;
2386;SDS011;49473;50.772;8.768;2024-01-06T04:10:57;4.40;;;2.73;;
2386;SDS011;49473;50.772;8.768;2024-01-06T04:13:24;3.87;;;2.40;;
2386;SDS011;49473;50.772;8.768;2024-01-06T04:15:51;4.27;;;2.53;;
2386;SDS011;49473;50.772;8.768;2024-01-06T04:18:18;3.73;;;2.70;;
2386;SDS011;49473;50.772;8.768;2024-01-06T04:20:44;3.63;;;2.20;;
2386;SDS011;49473;50.772;8.768;2024-01-06T04:23:12;2.63;;;2.43;;
2386;SDS011;49473;50.772;8.768;2024-01-06T04:25:39;2.80;;;2.23;;
2386;SDS011;49473;50.772;8.768;2024-01-06T04:28:06;3.10;;;2.30;;
2386;SDS011;49473;50.772;8.768;2024-01-06T04:30:33;5.00;;;2.80;;
2386;SDS011;49473;50.772;8.768;2024-01-06T04:32:59;5.83;;;2.70;;
2386;SDS011;49473;50.772;8.768;2024-01-06T04:35:26;2.80;;;1.97;;
2386;SDS011;49473;50.772;8.768;2024-01-06T04:37:53;3.67;;;2.23;;
2386;SDS011;49473;50.772;8.768;2024-01-06T04:40:21;3.47;;;2.47;;
2386;SDS011;49473;50.772;8.768;2024-01-06T04:42:47;5.53;;;2.60;;
2386;SDS011;49473;50.772;8.768;2024-01-06T04:45:14;4.80;;;2.60;;
2386;SDS011;49473;50.772;8.768;2024-01-06T04:47:42;5.47;;;2.53;;
2386;SDS011;49473;50.772;8.768;2024-01-06T04:50:09;4.60;;;2.10;;
2386;SDS011;49473;50.772;8.768;2024-01-06T04:52:36;3.20;;;2.27;;
2386;SDS011;49473;50.772;8.768;2024-01-06T04:55:02;2.67;;;2.43;;
2386;SDS011;49473;50.772;8.768;2024-01-06T04:57:31;3.87;;;2.57;;
2386;SDS011;49473;50.772;8.768;2024-01-06T04:59:58;3.87;;;2.60;;
2386;SDS011;49473;50.772;8.768;2024-01-06T05:02:24;2.60;;;1.90;;
2386;SDS011;49473;50.772;8.768;2024-01-06T05:04:51;2.57;;;2.30;;
2386;SDS011;49473;50.772;8.768;2024-01-06T05:07:18;3.60;;;2.63;;
2386;SDS011;49473;50.772;8.768;2024-01-06T05:09:45;5.30;;;2.30;;
2386;SDS011;49473;50.772;8.768;2024-01-06T05:12:11;2.20;;;2.00;;
2386;SDS011;49473;50.772;8.768;2024-01-06T05:14:39;5.63;;;2.27;;
2386;SDS011;49473;50.772;8.768;2024-01-06T05:17:06;4.43;;;2.60;;
2386;SDS011;49473;50.772;8.768;2024-01-06T05:19:34;2.70;;;2.43;;
2386;SDS011;49473;50.772;8.768;2024-01-06T05:22:02;4.30;;;2.30;;
2386;SDS011;49473;50.772;8.768;2024-01-06T05:24:29;3.37;;;2.37;;
2386;SDS011;49473;50.772;8.768;2024-01-06T05:26:55;5.67;;;3.10;;
2386;SDS011;49473;50.772;8.768;2024-01-06T05:29:22;2.83;;;2.30;;
2386;SDS011;49473;50.772;8.768;2024-01-06T05:31:52;5.27;;;2.87;;
2386;SDS011;49473;50.772;8.768;2024-01-06T05:34:18;2.80;;;2.40;;
2386;SDS011;49473;50.772;8.768;2024-01-06T05:36:45;4.77;;;2.50;;
2386;SDS011;49473;50.772;8.768;2024-01-06T05:39:15;3.93;;;2.87;;
2386;SDS011;49473;50.772;8.768;2024-01-06T05:41:41;5.73;;;3.57;;
2386;SDS011;49473;50.772;8.768;2024-01-06T05:44:08;5.83;;;4.90;;
2386;SDS011;49473;50.772;8.768;2024-01-06T05:46:36;6.00;;;5.03;;
2386;SDS011;49473;50.772;8.768;2024-01-06T05:49:04;4.40;;;4.07;;
2386;SDS011;49473;50.772;8.768;2024-01-06T05:51:31;3.80;;;3.50;;
2386;SDS011;49473;50.772;8.768;2024-01-06T05:53:57;5.03;;;3.60;;
2386;SDS011;49473;50.772;8.768;2024-01-06T05:56:24;3.23;;;2.47;;
2386;SDS011;49473;50.772;8.768;2024-01-06T05:58:51;3.60;;;3.20;;
2386;SDS011;49473;50.772;8.768;2024-01-06T06:01:19;3.00;;;2.70;;
2386;SDS011;49473;50.772;8.768;2024-01-06T06:03:46;3.10;;;2.80;;
2386;SDS011;49473;50.772;8.768;2024-01-06T06:06:16;3.57;;;2.40;;
2386;SDS011;49473;50.772;8.768;2024-01-06T06:08:43;8.27;;;4.27;;
2386;SDS011;49473;50.772;8.768;2024-01-06T06:11:10;4.47;;;4.07;;
2386;SDS011;49473;50.772;8.768;2024-01-06T06:13:37;4.97;;;4.13;;
2386;SDS011;49473;50.772;8.768;2024-01-06T06:16:05;5.63;;;4.57;;
2386;SDS011;49473;50.772;8.768;2024-01-06T06:18:33;8.67;;;3.87;;
2386;SDS011;49473;50.772;8.768;2024-01-06T06:21:00;5.63;;;4.03;;
2386;SDS011;49473;50.772;8.768;2024-01-06T06:23:29;5.50;;;5.00;;
2386;SDS011;49473;50.772;8.768;2024-01-06T06:25:56;5.67;;;3.93;;
2386;SDS011;49473;50.772;8.768;2024-01-06T06:28:24;4.00;;;3.60;;
2386;SDS011;49473;50.772;8.768;2024-01-06T06:30:51;3.53;;;3.23;;
2386;SDS011;49473;50.772;8.768;2024-01-06T06:33:17;5.47;;;3.77;;
2386;SDS011;49473;50.772;8.768;2024-01-06T06:35:44;5.90;;;3.50;;
2386;SDS011;49473;50.772;8.768;2024-01-06T06:38:11;4.93;;;3.50;;
2386;SDS011;49473;50.772;8.768;2024-01-06T06:40:39;4.60;;;3.77;;
2386;SDS011;49473;50.772;8.768;2024-01-06T06:43:06;5.43;;;3.27;;
2386;SDS011;49473;50.772;8.768;2024-01-06T06:45:33;4.30;;;3.83;;
2386;SDS011;49473;50.772;8.768;2024-01-06T06:48:00;4.97;;;3.60;;
2386;SDS011;49473;50.772;8.768;2024-01-06T06:50:27;4.80;;;3.53;;
2386;SDS011;49473;50.772;8.768;2024-01-06T06:52:53;6.83;;;4.27;;
2386;SDS011;49473;50.772;8.768;2024-01-06T06:55:20;5.60;;;4.43;;
2386;SDS011;49473;50.772;8.768;2024-01-06T06:57:48;4.97;;;4.37;;
2386;SDS011;49473;50.772;8.768;2024-01-06T07:00:15;3.93;;;3.63;;
2386;SDS011;49473;50.772;8.768;2024-01-06T07:02:42;4.50;;;3.93;;
2386;SDS011;49473;50.772;8.768;2024-01-06T07:05:09;4.40;;;3.07;;
2386;SDS011;49473;50.772;8.768;2024-01-06T07:07:36;4.40;;;3.07;;
2386;SDS011;49473;50.772;8.768;2024-01-06T07:10:04;5.70;;;3.67;;
2386;SDS011;49473;50.772;8.768;2024-01-06T07:12:32;7.60;;;3.33;;
2386;SDS011;49473;50.772;8.768;2024-01-06T07:15:00;2.70;;;2.50;;
2386;SDS011;49473;50.772;8.768;2024-01-06T07:17:28;4.37;;;3.07;;
2386;SDS011;49473;50.772;8.768;2024-01-06T07:19:54;3.60;;;2.30;;
2386;SDS011;49473;50.772;8.768;2024-01-06T07:22:21;3.47;;;3.10;;
2386;SDS011;49473;50.772;8.768;2024-01-06T07:24:48;3.87;;;3.40;;
2386;SDS011;49473;50.772;8.768;2024-01-06T07:27:14;3.30;;;2.50;;
2386;SDS011;49473;50.772;8.768;2024-01-06T07:29:41;5.50;;;4.30;;
2386;SDS011;49473;50.772;8.768;2024-01-06T07:32:09;7.07;;;5.37;;
2386;SDS011;49473;50.772;8.768;2024-01-06T07:34:36;6.87;;;5.30;;
2386;SDS011;49473;50.772;8.768;2024-01-06T07:37:03;4.70;;;4.27;;
2386;SDS011;49473;50.772;8.768;2024-01-06T07:39:31;5.00;;;4.50;;
2386;SDS011;49473;50.772;8.768;2024-01-06T07:41:58;5.23;;;3.80;;
2386;SDS011;49473;50.772;8.768;2024-01-06T07:44:25;7.20;;;4.23;;
2386;SDS011;49473;50.772;8.768;2024-01-06T07:46:52;7.90;;;5.03;;
2386;SDS011;49473;50.772;8.768;2024-01-06T07:49:20;4.97;;;4.20;;
2386;SDS011;49473;50.772;8.768;2024-01-06T07:51:47;7.60;;;4.70;;
2386;SDS011;49473;50.772;8.768;2024-01-06T07:54:14;5.50;;;4.00;;
2386;SDS011;49473;50.772;8.768;2024-01-06T07:56:40;5.93;;;3.90;;
2386;SDS011;49473;50.772;8.768;2024-01-06T07:59:09;5.87;;;4.30;;
2386;SDS011;49473;50.772;8.768;2024-01-06T08:01:36;7.93;;;4.30;;
2386;SDS011;49473;50.772;8.768;2024-01-06T08:04:03;4.93;;;4.03;;
2386;SDS011;49473;50.772;8.768;2024-01-06T08:06:31;5.20;;;4.20;;
2386;SDS011;49473;50.772;8.768;2024-01-06T08:08:58;7.47;;;4.10;;
2386;SDS011;49473;50.772;8.768;2024-01-06T08:11:25;9.23;;;5.03;;
2386;SDS011;49473;50.772;8.768;2024-01-06T08:13:52;6.37;;;4.47;;
2386;SDS011;49473;50.772;8.768;2024-01-06T08:16:19;4.80;;;4.07;;
2386;SDS011;49473;50.772;8.768;2024-01-06T08:18:46;4.20;;;3.80;;
2386;SDS011;49473;50.772;8.768;2024-01-06T08:21:13;4.80;;;4.30;;
2386;SDS011;49473;50.772;8.768;2024-01-06T08:23:41;5.93;;;5.33;;
2386;SDS011;49473;50.772;8.768;2024-01-06T08:26:07;8.17;;;6.50;;
2386;SDS011;49473;50.772;8.768;2024-01-06T08:28:34;7.03;;;5.70;;
2386;SDS011;49473;50.772;8.768;2024-01-06T08:31:01;7.70;;;5.80;;
2386;SDS011;49473;50.772;8.768;2024-01-06T08:33:28;6.80;;;5.43;;
2386;SDS011;49473;50.772;8.768;2024-01-06T08:35:54;6.67;;;5.53;;
2386;SDS011;49473;50.772;8.768;2024-01-06T08:38:21;5.13;;;4.43;;
2386;SDS011;49473;50.772;8.768;2024-01-06T08:40:50;6.97;;;5.77;;
2386;SDS011;49473;50.772;8.768;2024-01-06T08:43:18;5.63;;;4.77;;
2386;SDS011;49473;50.772;8.768;2024-01-06T08:45:45;5.20;;;4.70;;
2386;SDS011;49473;50.772;8.768;2024-01-06T08:48:12;5.83;;;4.60;;
2386;SDS011;49473;50.772;8.768;2024-01-06T08:50:40;8.80;;;7.23;;
2386;SDS011;49473;50.772;8.768;2024-01-06T08:53:06;11.93;;;7.70;;
2386;SDS011;49473;50.772;8.768;2024-01-06T08:55:33;8.60;;;7.30;;
2386;SDS011;49473;50.772;8.768;2024-01-06T08:58:03;6.60;;;5.50;;
2386;SDS011;49473;50.772;8.768;2024-01-06T09:00:30;5.87;;;5.20;;
2386;SDS011;49473;50.772;8.768;2024-01-06T09:02:57;7.33;;;4.87;;
2386;SDS011;49473;50.772;8.768;2024-01-06T09:05:24;8.07;;;4.83;;
2386;SDS011;49473;50.772;8.768;2024-01-06T09:07:51;7.90;;;4.83;;
2386;SDS011;49473;50.772;8.768;2024-01-06T09:10:19;5.03;;;4.60;;
2386;SDS011;49473;50.772;8.768;2024-01-06T09:12:45;7.70;;;4.40;;
2386;SDS011;49473;50.772;8.768;2024-01-06T09:15:14;4.20;;;3.70;;
2386;SDS011;49473;50.772;8.768;2024-01-06T09:17:41;3.53;;;3.23;;
2386;SDS011;49473;50.772;8.768;2024-01-06T09:20:08;4.67;;;3.77;;
2386;SDS011;49473;50.772;8.768;2024-01-06T09:22:35;3.40;;;3.10;;
2386;SDS011;49473;50.772;8.768;2024-01-06T09:25:02;4.87;;;3.20;;
2386;SDS011;49473;50.772;8.768;2024-01-06T09:27:29;5.53;;;3.67;;
2386;SDS011;49473;50.772;8.768;2024-01-06T09:29:56;4.07;;;3.77;;
2386;SDS011;49473;50.772;8.768;2024-01-06T09:32:24;5.17;;;3.93;;
2386;SDS011;49473;50.772;8.768;2024-01-06T09:34:51;5.67;;;5.07;;
2386;SDS011;49473;50.772;8.768;2024-01-06T09:37:18;6.67;;;4.77;;
2386;SDS011;49473;50.772;8.768;2024-01-06T09:39:44;4.40;;;3.90;;
2386;SDS011;49473;50.772;8.768;2024-01-06T09:42:11;5.80;;;4.47;;
2386;SDS011;49473;50.772;8.768;2024-01-06T09:44:38;6.07;;;4.20;;
2386;SDS011;49473;50.772;8.768;2024-01-06T09:47:05;7.17;;;4.53;;
2386;SDS011;49473;50.772;8.768;2024-01-06T09:49:34;6.73;;;4.83;;
2386;SDS011;49473;50.772;8.768;2024-01-06T09:52:03;7.10;;;4.70;;
2386;SDS011;49473;50.772;8.768;2024-01-06T09:54:34;6.37;;;5.77;;
2386;SDS011;49473;50.772;8.768;2024-01-06T09:57:05;8.30;;;6.27;;
2386;SDS011;49473;50.772;8.768;2024-01-06T09:59:34;6.07;;;5.47;;
2386;SDS011;49473;50.772;8.768;2024-01-06T10:02:02;8.23;;;4.43;;
2386;SDS011;49473;50.772;8.768;2024-01-06T10:04:30;5.80;;;4.60;;
2386;SDS011;49473;50.772;8.768;2024-01-06T10:06:59;6.37;;;5.77;;
2386;SDS011;49473;50.772;8.768;2024-01-06T10:09:26;7.73;;;4.37;;
2386;SDS011;49473;50.772;8.768;2024-01-06T10:11:54;6.63;;;4.20;;
2386;SDS011;49473;50.772;8.768;2024-01-06T10:14:22;5.10;;;3.37;;
2386;SDS011;49473;50.772;8.768;2024-01-06T10:16:49;6.60;;;3.40;;
2386;SDS011;49473;50.772;8.768;2024-01-06T10:19:17;4.30;;;3.90;;
2386;SDS011;49473;50.772;8.768;2024-01-06T10:21:43;7.93;;;3.60;;
2386;SDS011;49473;50.772;8.768;2024-01-06T10:24:12;4.40;;;3.87;;
2386;SDS011;49473;50.772;8.768;2024-01-06T10:26:39;6.20;;;3.40;;
2386;SDS011;49473;50.772;8.768;2024-01-06T10:29:05;6.30;;;3.47;;
2386;SDS011;49473;50.772;8.768;2024-01-06T10:31:34;9.30;;;3.60;;
2386;SDS011;49473;50.772;8.768;2024-01-06T10:34:01;4.43;;;3.00;;
2386;SDS011;49473;50.772;8.768;2024-01-06T10:36:28;5.23;;;3.80;;
2386;SDS011;49473;50.772;8.768;2024-01-06T10:38:56;4.03;;;3.60;;
2386;SDS011;49473;50.772;8.768;2024-01-06T10:41:26;5.87;;;3.17;;
2386;SDS011;49473;50.772;8.768;2024-01-06T10:43:54;4.87;;;3.00;;
2386;SDS011;49473;50.772;8.768;2024-01-06T10:46:26;5.20;;;3.50;;
2386;SDS011;49473;50.772;8.768;2024-01-06T10:48:53;4.20;;;2.77;;
2386;SDS011;49473;50.772;8.768;2024-01-06T10:51:24;4.20;;;2.97;;
2386;SDS011;49473;50.772;8.768;2024-01-06T10:53:52;4.03;;;3.67;;
2386;SDS011;49473;50.772;8.768;2024-01-06T10:56:19;4.10;;;3.70;;
2386;SDS011;49473;50.772;8.768;2024-01-06T10:58:50;3.40;;;3.10;;
2386;SDS011;49473;50.772;8.768;2024-01-06T11:01:19;6.10;;;3.77;;
2386;SDS011;49473;50.772;8.768;2024-01-06T11:03:47;6.90;;;4.33;;
2386;SDS011;49473;50.772;8.768;2024-01-06T11:06:14;3.67;;;3.37;;
2386;SDS011;49473;50.772;8.768;2024-01-06T11:08:43;4.43;;;3.50;;
2386;SDS011;49473;50.772;8.768;2024-01-06T11:11:16;5.90;;;3.73;;
2386;SDS011;49473;50.772;8.768;2024-01-06T11:13:43;3.90;;;3.60;;
2386;SDS011;49473;50.772;8.768;2024-01-06T11:16:13;3.93;;;3.63;;
2386;SDS011;49473;50.772;8.768;2024-01-06T11:18:59;3.90;;;3.40;;
2386;SDS011;49473;50.772;8.768;2024-01-06T11:21:28;4.57;;;3.70;;
2386;SDS011;49473;50.772;8.768;2024-01-06T11:24:15;3.40;;;3.17;;
2386;SDS011;49473;50.772;8.768;2024-01-06T11:26:49;3.23;;;2.93;;
2386;SDS011;49473;50.772;8.768;2024-01-06T11:29:17;8.07;;;3.83;;
2386;SDS011;49473;50.772;8.768;2024-01-06T11:31:47;6.87;;;4.80;;
2386;SDS011;49473;50.772;8.768;2024-01-06T11:34:47;4.63;;;4.07;;
2386;SDS011;49473;50.772;8.768;2024-01-06T11:37:16;5.53;;;4.10;;
2386;SDS011;49473;50.772;8.768;2024-01-06T11:39:44;5.43;;;4.93;;
2386;SDS011;49473;50.772;8.768;2024-01-06T11:42:11;5.53;;;4.50;;
2386;SDS011;49473;50.772;8.768;2024-01-06T11:44:38;5.43;;;4.97;;
2386;SDS011;49473;50.772;8.768;2024-01-06T11:47:07;6.53;;;4.40;;
2386;SDS011;49473;50.772;8.768;2024-01-06T11:49:36;4.93;;;4.40;;
2386;SDS011;49473;50.772;8.768;2024-01-06T11:52:03;8.40;;;4.80;;
2386;SDS011;49473;50.772;8.768;2024-01-06T11:54:31;5.73;;;4.90;;
2386;SDS011;49473;50.772;8.768;2024-01-06T11:56:58;5.50;;;4.83;;
2386;SDS011;49473;50.772;8.768;2024-01-06T11:59:25;4.50;;;4.10;;
2386;SDS011;49473;50.772;8.768;2024-01-06T12:01:52;5.40;;;4.80;;
2386;SDS011;49473;50.772;8.768;2024-01-06T12:04:20;4.70;;;4.40;;
2386;SDS011;49473;50.772;8.768;2024-01-06T12:06:50;5.23;;;4.83;;
2386;SDS011;49473;50.772;8.768;2024-01-06T12:09:17;5.27;;;4.77;;
2386;SDS011;49473;50.772;8.768;2024-01-06T12:11:45;5.63;;;4.70;;
2386;SDS011;49473;50.772;8.768;2024-01-06T12:14:12;7.80;;;5.90;;
2386;SDS011;49473;50.772;8.768;2024-01-06T12:16:38;8.57;;;5.37;;
2386;SDS011;49473;50.772;8.768;2024-01-06T12:19:05;9.13;;;5.90;;
2386;SDS011;49473;50.772;8.768;2024-01-06T12:21:33;7.03;;;5.60;;
2386;SDS011;49473;50.772;8.768;2024-01-06T12:24:15;5.63;;;5.13;;
2386;SDS011;49473;50.772;8.768;2024-01-06T12:26:45;5.80;;;5.20;;
2386;SDS011;49473;50.772;8.768;2024-01-06T12:29:12;8.70;;;5.50;;
2386;SDS011;49473;50.772;8.768;2024-01-06T12:31:39;5.53;;;5.13;;
2386;SDS011;49473;50.772;8.768;2024-01-06T12:34:06;6.83;;;4.60;;
2386;SDS011;49473;50.772;8.768;2024-01-06T12:36:35;6.30;;;5.37;;
2386;SDS011;49473;50.772;8.768;2024-01-06T12:39:04;8.70;;;5.70;;
2386;SDS011;49473;50.772;8.768;2024-01-06T12:41:38;8.43;;;7.13;;
2386;SDS011;49473;50.772;8.768;2024-01-06T12:44:04;6.80;;;5.40;;
2386;SDS011;49473;50.772;8.768;2024-01-06T12:46:32;8.13;;;7.13;;
2386;SDS011;49473;50.772;8.768;2024-01-06T12:48:59;6.53;;;5.53;;
2386;SDS011;49473;50.772;8.768;2024-01-06T12:51:25;5.93;;;5.30;;
2386;SDS011;49473;50.772;8.768;2024-01-06T12:53:54;7.57;;;6.10;;
2386;SDS011;49473;50.772;8.768;2024-01-06T12:56:20;6.37;;;5.77;;
2386;SDS011;49473;50.772;8.768;2024-01-06T12:58:47;6.60;;;5.97;;
2386;SDS011;49473;50.772;8.768;2024-01-06T13:01:14;6.77;;;5.87;;
2386;SDS011;49473;50.772;8.768;2024-01-06T13:03:42;7.23;;;6.53;;
2386;SDS011;49473;50.772;8.768;2024-01-06T13:06:09;7.33;;;5.70;;
2386;SDS011;49473;50.772;8.768;2024-01-06T13:08:36;6.57;;;5.97;;
2386;SDS011;49473;50.772;8.768;2024-01-06T13:11:04;6.43;;;5.83;;
2386;SDS011;49473;50.772;8.768;2024-01-06T13:13:31;5.83;;;5.33;;
2386;SDS011;49473;50.772;8.768;2024-01-06T13:15:58;6.83;;;6.23;;
2386;SDS011;49473;50.772;8.768;2024-01-06T13:18:26;9.20;;;7.10;;
2386;SDS011;49473;50.772;8.768;2024-01-06T13:20:54;10.43;;;7.80;;
2386;SDS011;49473;50.772;8.768;2024-01-06T13:23:20;6.60;;;6.00;;
2386;SDS011;49473;50.772;8.768;2024-01-06T13:25:50;7.33;;;6.40;;
2386;SDS011;49473;50.772;8.768;2024-01-06T13:28:18;9.57;;;8.60;;
2386;SDS011;49473;50.772;8.768;2024-01-06T13:30:45;9.27;;;8.20;;
2386;SDS011;49473;50.772;8.768;2024-01-06T13:33:12;8.67;;;7.07;;
2386;SDS011;49473;50.772;8.768;2024-01-06T13:35:39;8.20;;;7.47;;
2386;SDS011;49473;50.772;8.768;2024-01-06T13:38:05;11.27;;;8.90;;
2386;SDS011;49473;50.772;8.768;2024-01-06T13:40:34;8.93;;;8.03;;
2386;SDS011;49473;50.772;8.768;2024-01-06T13:43:00;9.33;;;7.70;;
2386;SDS011;49473;50.772;8.768;2024-01-06T13:45:31;7.70;;;7.00;;
2386;SDS011;49473;50.772;8.768;2024-01-06T13:47:58;6.80;;;6.30;;
2386;SDS011;49473;50.772;8.768;2024-01-06T13:50:25;8.03;;;7.20;;
2386;SDS011;49473;50.772;8.768;2024-01-06T13:52:52;8.93;;;6.83;;
2386;SDS011;49473;50.772;8.768;2024-01-06T13:55:19;8.00;;;7.20;;
2386;SDS011;49473;50.772;8.768;2024-01-06T13:57:46;8.70;;;6.60;;
2386;SDS011;49473;50.772;8.768;2024-01-06T14:00:14;6.40;;;5.80;;
2386;SDS011;49473;50.772;8.768;2024-01-06T14:02:45;7.30;;;6.63;;
2386;SDS011;49473;50.772;8.768;2024-01-06T14:05:13;7.03;;;6.40;;
2386;SDS011;49473;50.772;8.768;2024-01-06T14:07:40;6.37;;;5.73;;
2386;SDS011;49473;50.772;8.768;2024-01-06T14:10:10;7.20;;;6.50;;
2386;SDS011;49473;50.772;8.768;2024-01-06T14:12:37;5.77;;;5.23;;
2386;SDS011;49473;50.772;8.768;2024-01-06T14:15:05;6.70;;;5.23;;
2386;SDS011;49473;50.772;8.768;2024-01-06T14:17:33;6.17;;;5.57;;
2386;SDS011;49473;50.772;8.768;2024-01-06T14:20:01;6.77;;;6.10;;
2386;SDS011;49473;50.772;8.768;2024-01-06T14:22:28;5.70;;;5.17;;
2386;SDS011;49473;50.772;8.768;2024-01-06T14:24:55;6.93;;;6.03;;
2386;SDS011;49473;50.772;8.768;2024-01-06T14:27:21;12.67;;;6.63;;
2386;SDS011;49473;50.772;8.768;2024-01-06T14:29:51;6.67;;;6.07;;
2386;SDS011;49473;50.772;8.768;2024-01-06T14:32:20;6.63;;;6.03;;
2386;SDS011;49473;50.772;8.768;2024-01-06T14:34:48;7.77;;;6.37;;
2386;SDS011;49473;50.772;8.768;2024-01-06T14:37:17;7.00;;;6.30;;
2386;SDS011;49473;50.772;8.768;2024-01-06T14:39:43;7.83;;;7.10;;
2386;SDS011;49473;50.772;8.768;2024-01-06T14:42:10;6.60;;;6.00;;
2386;SDS011;49473;50.772;8.768;2024-01-06T14:44:37;10.87;;;6.43;;
2386;SDS011;49473;50.772;8.768;2024-01-06T14:47:04;6.63;;;6.03;;
2386;SDS011;49473;50.772;8.768;2024-01-06T14:49:32;10.67;;;9.40;;
2386;SDS011;49473;50.772;8.768;2024-01-06T14:51:59;10.60;;;8.60;;
2386;SDS011;49473;50.772;8.768;2024-01-06T14:54:28;9.87;;;8.50;;
2386;SDS011;49473;50.772;8.768;2024-01-06T14:56:56;11.63;;;8.40;;
2386;SDS011;49473;50.772;8.768;2024-01-06T14:59:23;10.43;;;8.83;;
2386;SDS011;49473;50.772;8.768;2024-01-06T15:01:49;8.10;;;7.10;;